This is the latest recevied weather packets stored in our database for station/object SV9TNF-51. If no packets are shown the sender has not sent any weather packets the latest 10 day(s).
| Time | Temp. | Humidity | Pressure | Rain* | Wind** | Luminosity | Snow |
|---|---|---|---|---|---|---|---|
| 1787990505 | 30.56° C | 48% | 1014.2 hPa | 0 mm | 4.47 m/s, 96° | - | - |
| 1787990205 | 30.56° C | 46% | 1014.2 hPa | 0 mm | 3.58 m/s, 120° | - | - |
| 1787989905 | 30.56° C | 46% | 1014.2 hPa | 0 mm | 6.71 m/s, 118° | - | - |
| 1787989605 | 30° C | 44% | 1014.2 hPa | 0 mm | 5.36 m/s, 106° | - | - |
| 1787989305 | 30.56° C | 43% | 1014.2 hPa | 0 mm | 2.68 m/s, 123° | - | - |
| 1787989005 | 30.56° C | 43% | 1014.2 hPa | 0 mm | 3.13 m/s, 118° | - | - |
| 1787988705 | 30.56° C | 44% | 1014.2 hPa | 0 mm | 4.92 m/s, 115° | - | - |
| 1787988405 | 30.56° C | 43% | 1014.2 hPa | 0 mm | 2.68 m/s, 116° | - | - |
| 1787988105 | 29.44° C | 45% | 1014.2 hPa | 0 mm | 3.13 m/s, 129° | - | - |
| 1787987805 | 29.44° C | 46% | 1014.2 hPa | 0 mm | 4.02 m/s, 132° | - | - |
| 1787987505 | 30° C | 46% | 1014.2 hPa | 0 mm | 2.24 m/s, 123° | - | - |
| 1787987204 | 29.44° C | 48% | 1014.2 hPa | 0 mm | 3.13 m/s, 125° | - | - |
| 1787986904 | 29.44° C | 49% | 1014.2 hPa | 0 mm | 4.47 m/s, 147° | - | - |
| 1787986604 | 29.44° C | 48% | 1014.2 hPa | 0 mm | 1.79 m/s, 124° | - | - |
| 1787986304 | 29.44° C | 49% | 1014.2 hPa | 0 mm | 0.89 m/s, 129° | - | - |
| 1787986004 | 28.33° C | 52% | 1014.2 hPa | 0 mm | 5.36 m/s, 78° | - | - |
| 1787985704 | 28.33° C | 52% | 1014.2 hPa | 0 mm | 4.47 m/s, 108° | - | - |
| 1787985404 | 28.33° C | 53% | 1014.2 hPa | 0 mm | 6.26 m/s, 155° | - | - |
| 1787985104 | 28.33° C | 53% | 1014.2 hPa | 0 mm | 4.92 m/s, 124° | - | - |
| 1787984803 | 28.33° C | 53% | 1014.2 hPa | 0 mm | 2.68 m/s, 137° | - | - |
| 1787984504 | 28.33° C | 52% | 1014.2 hPa | 0 mm | 1.79 m/s, 110° | - | - |
| 1787984203 | 28.33° C | 52% | 1014.2 hPa | 0 mm | 4.02 m/s, 98° | - | - |
| 1787983903 | 28.33° C | 50% | 1013.9 hPa | 0 mm | 3.58 m/s, 110° | - | - |
| 1787983603 | 28.89° C | 49% | 1013.9 hPa | 0 mm | 2.24 m/s, 130° | - | - |
| 1787983304 | 28.33° C | 50% | 1013.9 hPa | 0 mm | 4.02 m/s, 145° | - | - |
* Rain latest hour (hover to see other rain measurements)
** Current wind speed in m/s (hover to see current wind gust speed)